sensor_id;sensor_type;location;lat;lon;timestamp;temperature;humidity
13186;DHT22;6658;53.080;7.428;2022-08-19T00:00:09;14.70;99.90
13186;DHT22;6658;53.080;7.428;2022-08-19T00:02:35;14.70;99.90
13186;DHT22;6658;53.080;7.428;2022-08-19T00:05:03;14.70;99.90
13186;DHT22;6658;53.080;7.428;2022-08-19T00:07:28;14.70;99.90
13186;DHT22;6658;53.080;7.428;2022-08-19T00:09:54;14.70;99.90
13186;DHT22;6658;53.080;7.428;2022-08-19T00:12:20;14.70;99.90
13186;DHT22;6658;53.080;7.428;2022-08-19T00:14:45;14.60;99.90
13186;DHT22;6658;53.080;7.428;2022-08-19T00:17:11;14.60;99.90
13186;DHT22;6658;53.080;7.428;2022-08-19T00:19:38;14.60;99.90
13186;DHT22;6658;53.080;7.428;2022-08-19T00:22:04;14.60;99.90
13186;DHT22;6658;53.080;7.428;2022-08-19T00:24:31;14.60;99.90
13186;DHT22;6658;53.080;7.428;2022-08-19T00:26:57;14.50;99.90
13186;DHT22;6658;53.080;7.428;2022-08-19T00:29:24;14.50;99.90
13186;DHT22;6658;53.080;7.428;2022-08-19T00:31:51;14.50;99.90
13186;DHT22;6658;53.080;7.428;2022-08-19T00:34:20;14.50;99.90
13186;DHT22;6658;53.080;7.428;2022-08-19T00:36:46;14.50;99.90
13186;DHT22;6658;53.080;7.428;2022-08-19T00:39:14;14.50;99.90
13186;DHT22;6658;53.080;7.428;2022-08-19T00:41:41;14.40;99.90
13186;DHT22;6658;53.080;7.428;2022-08-19T00:44:14;14.40;99.90
13186;DHT22;6658;53.080;7.428;2022-08-19T00:46:42;14.40;99.90
13186;DHT22;6658;53.080;7.428;2022-08-19T00:49:45;14.30;99.90
13186;DHT22;6658;53.080;7.428;2022-08-19T00:52:27;14.30;99.90
13186;DHT22;6658;53.080;7.428;2022-08-19T00:54:57;14.30;99.90
13186;DHT22;6658;53.080;7.428;2022-08-19T00:57:36;14.30;99.90
13186;DHT22;6658;53.080;7.428;2022-08-19T01:00:09;14.30;99.90
13186;DHT22;6658;53.080;7.428;2022-08-19T01:02:37;14.30;99.90
13186;DHT22;6658;53.080;7.428;2022-08-19T01:05:08;14.30;99.90
13186;DHT22;6658;53.080;7.428;2022-08-19T01:07:35;14.30;99.90
13186;DHT22;6658;53.080;7.428;2022-08-19T01:10:05;14.30;99.90
13186;DHT22;6658;53.080;7.428;2022-08-19T01:12:31;14.20;99.90
13186;DHT22;6658;53.080;7.428;2022-08-19T01:14:57;14.20;99.90
13186;DHT22;6658;53.080;7.428;2022-08-19T01:17:24;14.20;99.90
13186;DHT22;6658;53.080;7.428;2022-08-19T01:19:50;14.20;99.90
13186;DHT22;6658;53.080;7.428;2022-08-19T01:24:53;14.10;99.90
13186;DHT22;6658;53.080;7.428;2022-08-19T01:27:21;14.00;99.90
13186;DHT22;6658;53.080;7.428;2022-08-19T01:29:47;14.00;99.90
13186;DHT22;6658;53.080;7.428;2022-08-19T01:32:15;14.00;99.90
13186;DHT22;6658;53.080;7.428;2022-08-19T01:34:41;13.90;99.90
13186;DHT22;6658;53.080;7.428;2022-08-19T01:37:10;13.90;99.90
13186;DHT22;6658;53.080;7.428;2022-08-19T01:39:38;13.80;99.90
13186;DHT22;6658;53.080;7.428;2022-08-19T01:42:05;13.90;99.90
13186;DHT22;6658;53.080;7.428;2022-08-19T01:44:33;13.80;99.90
13186;DHT22;6658;53.080;7.428;2022-08-19T01:46:58;13.80;99.90
13186;DHT22;6658;53.080;7.428;2022-08-19T01:49:25;13.80;99.90
13186;DHT22;6658;53.080;7.428;2022-08-19T01:51:52;13.80;99.90
13186;DHT22;6658;53.080;7.428;2022-08-19T01:54:21;13.80;99.90
13186;DHT22;6658;53.080;7.428;2022-08-19T01:56:47;13.80;99.90
13186;DHT22;6658;53.080;7.428;2022-08-19T01:59:17;13.80;99.90
13186;DHT22;6658;53.080;7.428;2022-08-19T02:01:43;13.80;99.90
13186;DHT22;6658;53.080;7.428;2022-08-19T02:04:09;13.70;99.90
13186;DHT22;6658;53.080;7.428;2022-08-19T02:06:35;13.80;99.90
13186;DHT22;6658;53.080;7.428;2022-08-19T02:09:02;13.80;99.90
13186;DHT22;6658;53.080;7.428;2022-08-19T02:11:31;13.80;99.90
13186;DHT22;6658;53.080;7.428;2022-08-19T02:14:00;13.70;99.90
13186;DHT22;6658;53.080;7.428;2022-08-19T02:16:27;13.70;99.90
13186;DHT22;6658;53.080;7.428;2022-08-19T02:18:53;13.70;99.90
13186;DHT22;6658;53.080;7.428;2022-08-19T02:21:21;13.70;99.90
13186;DHT22;6658;53.080;7.428;2022-08-19T02:23:48;13.70;99.90
13186;DHT22;6658;53.080;7.428;2022-08-19T02:26:14;13.80;99.90
13186;DHT22;6658;53.080;7.428;2022-08-19T02:28:41;13.80;99.90
13186;DHT22;6658;53.080;7.428;2022-08-19T02:31:17;13.80;99.90
13186;DHT22;6658;53.080;7.428;2022-08-19T02:33:44;13.80;99.90
13186;DHT22;6658;53.080;7.428;2022-08-19T02:36:11;13.80;99.90
13186;DHT22;6658;53.080;7.428;2022-08-19T02:38:37;13.80;99.90
13186;DHT22;6658;53.080;7.428;2022-08-19T02:41:07;13.80;99.90
13186;DHT22;6658;53.080;7.428;2022-08-19T02:43:33;13.80;99.90
13186;DHT22;6658;53.080;7.428;2022-08-19T02:46:25;13.80;99.90
13186;DHT22;6658;53.080;7.428;2022-08-19T02:48:54;13.80;99.90
13186;DHT22;6658;53.080;7.428;2022-08-19T02:51:23;13.80;99.90
13186;DHT22;6658;53.080;7.428;2022-08-19T02:53:49;13.80;99.90
13186;DHT22;6658;53.080;7.428;2022-08-19T02:56:14;13.80;99.90
13186;DHT22;6658;53.080;7.428;2022-08-19T02:58:41;13.70;99.90
13186;DHT22;6658;53.080;7.428;2022-08-19T03:01:07;13.70;99.90
13186;DHT22;6658;53.080;7.428;2022-08-19T03:03:33;13.70;99.90
13186;DHT22;6658;53.080;7.428;2022-08-19T03:06:12;13.70;99.90
13186;DHT22;6658;53.080;7.428;2022-08-19T03:08:40;13.70;99.90
13186;DHT22;6658;53.080;7.428;2022-08-19T03:11:06;13.80;99.90
13186;DHT22;6658;53.080;7.428;2022-08-19T03:13:37;13.80;99.90
13186;DHT22;6658;53.080;7.428;2022-08-19T03:16:05;13.80;99.90
13186;DHT22;6658;53.080;7.428;2022-08-19T03:18:31;13.80;99.90
13186;DHT22;6658;53.080;7.428;2022-08-19T03:20:56;13.80;99.90
13186;DHT22;6658;53.080;7.428;2022-08-19T03:23:23;13.80;99.90
13186;DHT22;6658;53.080;7.428;2022-08-19T03:25:50;13.70;99.90
13186;DHT22;6658;53.080;7.428;2022-08-19T03:28:17;13.70;99.90
13186;DHT22;6658;53.080;7.428;2022-08-19T03:30:54;13.60;99.90
13186;DHT22;6658;53.080;7.428;2022-08-19T03:33:24;13.50;99.90
13186;DHT22;6658;53.080;7.428;2022-08-19T03:36:07;13.50;99.90
13186;DHT22;6658;53.080;7.428;2022-08-19T03:38:47;13.50;99.90
13186;DHT22;6658;53.080;7.428;2022-08-19T03:41:20;13.40;99.90
13186;DHT22;6658;53.080;7.428;2022-08-19T03:43:47;13.40;99.90
13186;DHT22;6658;53.080;7.428;2022-08-19T03:46:16;13.40;99.90
13186;DHT22;6658;53.080;7.428;2022-08-19T03:48:43;13.40;99.90
13186;DHT22;6658;53.080;7.428;2022-08-19T03:51:18;13.40;99.90
13186;DHT22;6658;53.080;7.428;2022-08-19T03:53:45;13.40;99.90
13186;DHT22;6658;53.080;7.428;2022-08-19T03:56:11;13.40;99.90
13186;DHT22;6658;53.080;7.428;2022-08-19T03:58:39;13.30;99.90
13186;DHT22;6658;53.080;7.428;2022-08-19T04:01:10;13.40;99.90
13186;DHT22;6658;53.080;7.428;2022-08-19T04:03:37;13.40;99.90
13186;DHT22;6658;53.080;7.428;2022-08-19T04:08:36;13.40;99.90
13186;DHT22;6658;53.080;7.428;2022-08-19T04:11:09;13.30;99.90
13186;DHT22;6658;53.080;7.428;2022-08-19T04:13:35;13.30;99.90
13186;DHT22;6658;53.080;7.428;2022-08-19T04:16:01;13.30;99.90
13186;DHT22;6658;53.080;7.428;2022-08-19T04:18:27;13.30;99.90
13186;DHT22;6658;53.080;7.428;2022-08-19T04:20:55;13.40;99.90
13186;DHT22;6658;53.080;7.428;2022-08-19T04:23:20;13.40;99.90
13186;DHT22;6658;53.080;7.428;2022-08-19T04:25:46;13.40;99.90
13186;DHT22;6658;53.080;7.428;2022-08-19T04:28:12;13.40;99.90
13186;DHT22;6658;53.080;7.428;2022-08-19T04:30:46;13.40;99.90
13186;DHT22;6658;53.080;7.428;2022-08-19T04:33:14;13.40;99.90
13186;DHT22;6658;53.080;7.428;2022-08-19T04:35:43;13.40;99.90
13186;DHT22;6658;53.080;7.428;2022-08-19T04:38:10;13.40;99.90
13186;DHT22;6658;53.080;7.428;2022-08-19T04:40:41;13.50;99.90
13186;DHT22;6658;53.080;7.428;2022-08-19T04:43:25;13.50;99.90
13186;DHT22;6658;53.080;7.428;2022-08-19T04:45:51;13.50;99.90
13186;DHT22;6658;53.080;7.428;2022-08-19T04:48:17;13.50;99.90
13186;DHT22;6658;53.080;7.428;2022-08-19T04:50:47;13.50;99.90
13186;DHT22;6658;53.080;7.428;2022-08-19T04:53:13;13.50;99.90
13186;DHT22;6658;53.080;7.428;2022-08-19T04:55:41;13.50;99.90
13186;DHT22;6658;53.080;7.428;2022-08-19T04:58:07;13.50;99.90
13186;DHT22;6658;53.080;7.428;2022-08-19T05:00:33;13.50;99.90
13186;DHT22;6658;53.080;7.428;2022-08-19T05:02:58;13.60;99.90
13186;DHT22;6658;53.080;7.428;2022-08-19T05:05:24;13.60;99.90
13186;DHT22;6658;53.080;7.428;2022-08-19T05:07:50;13.60;99.90
13186;DHT22;6658;53.080;7.428;2022-08-19T05:10:15;13.70;99.90
13186;DHT22;6658;53.080;7.428;2022-08-19T05:12:41;13.70;99.90
13186;DHT22;6658;53.080;7.428;2022-08-19T05:15:07;13.80;99.90
13186;DHT22;6658;53.080;7.428;2022-08-19T05:17:36;13.90;99.90
13186;DHT22;6658;53.080;7.428;2022-08-19T05:20:04;14.00;99.90
13186;DHT22;6658;53.080;7.428;2022-08-19T05:22:49;14.00;99.90
13186;DHT22;6658;53.080;7.428;2022-08-19T05:25:18;14.10;99.90
13186;DHT22;6658;53.080;7.428;2022-08-19T05:27:44;14.20;99.90
13186;DHT22;6658;53.080;7.428;2022-08-19T05:30:11;14.20;99.90
13186;DHT22;6658;53.080;7.428;2022-08-19T05:32:38;14.20;99.90
13186;DHT22;6658;53.080;7.428;2022-08-19T05:35:05;14.20;99.90
13186;DHT22;6658;53.080;7.428;2022-08-19T05:37:31;14.30;99.90
13186;DHT22;6658;53.080;7.428;2022-08-19T05:39:56;14.30;99.90
13186;DHT22;6658;53.080;7.428;2022-08-19T05:42:22;14.30;99.90
13186;DHT22;6658;53.080;7.428;2022-08-19T05:44:48;14.40;99.90
13186;DHT22;6658;53.080;7.428;2022-08-19T05:47:14;14.40;99.90
13186;DHT22;6658;53.080;7.428;2022-08-19T05:49:41;14.40;99.90
13186;DHT22;6658;53.080;7.428;2022-08-19T05:52:10;14.40;99.90
13186;DHT22;6658;53.080;7.428;2022-08-19T05:54:38;14.40;99.90
13186;DHT22;6658;53.080;7.428;2022-08-19T05:57:07;14.40;99.90
13186;DHT22;6658;53.080;7.428;2022-08-19T05:59:33;14.50;99.90
13186;DHT22;6658;53.080;7.428;2022-08-19T06:02:00;14.50;99.90
13186;DHT22;6658;53.080;7.428;2022-08-19T06:04:26;14.60;99.90
13186;DHT22;6658;53.080;7.428;2022-08-19T06:06:53;14.60;99.90
13186;DHT22;6658;53.080;7.428;2022-08-19T06:09:20;14.60;99.90
13186;DHT22;6658;53.080;7.428;2022-08-19T06:11:51;14.60;99.90
13186;DHT22;6658;53.080;7.428;2022-08-19T06:14:26;14.70;99.90
13186;DHT22;6658;53.080;7.428;2022-08-19T06:16:52;14.80;99.90
13186;DHT22;6658;53.080;7.428;2022-08-19T06:19:19;14.80;99.90
13186;DHT22;6658;53.080;7.428;2022-08-19T06:21:47;14.90;99.90
13186;DHT22;6658;53.080;7.428;2022-08-19T06:24:16;15.00;99.90
13186;DHT22;6658;53.080;7.428;2022-08-19T06:26:44;15.00;99.90
13186;DHT22;6658;53.080;7.428;2022-08-19T06:29:11;15.10;99.90
13186;DHT22;6658;53.080;7.428;2022-08-19T06:31:41;15.20;99.90
13186;DHT22;6658;53.080;7.428;2022-08-19T06:34:07;15.40;99.90
13186;DHT22;6658;53.080;7.428;2022-08-19T06:36:37;15.50;99.90
13186;DHT22;6658;53.080;7.428;2022-08-19T06:39:09;15.60;99.90
13186;DHT22;6658;53.080;7.428;2022-08-19T06:41:38;15.80;99.90
13186;DHT22;6658;53.080;7.428;2022-08-19T06:44:05;15.90;99.90
13186;DHT22;6658;53.080;7.428;2022-08-19T06:46:31;16.00;99.90
13186;DHT22;6658;53.080;7.428;2022-08-19T06:48:57;16.10;99.90
13186;DHT22;6658;53.080;7.428;2022-08-19T06:51:24;16.10;99.90
13186;DHT22;6658;53.080;7.428;2022-08-19T06:53:52;16.20;99.90
13186;DHT22;6658;53.080;7.428;2022-08-19T06:56:21;16.20;99.90
13186;DHT22;6658;53.080;7.428;2022-08-19T06:58:47;16.30;99.90
13186;DHT22;6658;53.080;7.428;2022-08-19T07:01:17;16.30;99.90
13186;DHT22;6658;53.080;7.428;2022-08-19T07:03:42;16.40;99.90
13186;DHT22;6658;53.080;7.428;2022-08-19T07:06:13;16.50;99.90
13186;DHT22;6658;53.080;7.428;2022-08-19T07:08:40;16.60;99.90
13186;DHT22;6658;53.080;7.428;2022-08-19T07:11:09;16.80;99.90
13186;DHT22;6658;53.080;7.428;2022-08-19T07:13:36;16.90;99.90
13186;DHT22;6658;53.080;7.428;2022-08-19T07:16:06;17.10;99.90
13186;DHT22;6658;53.080;7.428;2022-08-19T07:18:33;17.40;99.90
13186;DHT22;6658;53.080;7.428;2022-08-19T07:21:06;17.70;99.90
13186;DHT22;6658;53.080;7.428;2022-08-19T07:23:33;18.00;99.90
13186;DHT22;6658;53.080;7.428;2022-08-19T07:26:14;18.40;99.90
13186;DHT22;6658;53.080;7.428;2022-08-19T07:28:40;18.80;99.90
13186;DHT22;6658;53.080;7.428;2022-08-19T07:31:11;19.40;99.90
13186;DHT22;6658;53.080;7.428;2022-08-19T07:33:37;19.80;99.90
13186;DHT22;6658;53.080;7.428;2022-08-19T07:36:05;20.00;99.90
13186;DHT22;6658;53.080;7.428;2022-08-19T07:38:31;20.20;99.90
13186;DHT22;6658;53.080;7.428;2022-08-19T07:40:57;20.40;99.90
13186;DHT22;6658;53.080;7.428;2022-08-19T07:43:23;20.70;99.90
13186;DHT22;6658;53.080;7.428;2022-08-19T07:45:51;21.00;99.90
13186;DHT22;6658;53.080;7.428;2022-08-19T07:48:18;21.40;99.90
13186;DHT22;6658;53.080;7.428;2022-08-19T07:50:44;21.50;99.90
13186;DHT22;6658;53.080;7.428;2022-08-19T07:53:10;21.60;99.90
13186;DHT22;6658;53.080;7.428;2022-08-19T07:55:37;21.60;99.90
13186;DHT22;6658;53.080;7.428;2022-08-19T07:58:03;21.60;99.90
13186;DHT22;6658;53.080;7.428;2022-08-19T08:00:30;21.60;99.90
13186;DHT22;6658;53.080;7.428;2022-08-19T08:02:56;21.50;99.90
13186;DHT22;6658;53.080;7.428;2022-08-19T08:05:23;21.70;99.90
13186;DHT22;6658;53.080;7.428;2022-08-19T08:08:07;22.00;99.90
13186;DHT22;6658;53.080;7.428;2022-08-19T08:10:51;22.30;99.90
13186;DHT22;6658;53.080;7.428;2022-08-19T08:13:16;22.30;99.90
13186;DHT22;6658;53.080;7.428;2022-08-19T08:15:42;22.60;99.90
13186;DHT22;6658;53.080;7.428;2022-08-19T08:18:11;22.90;99.90
13186;DHT22;6658;53.080;7.428;2022-08-19T08:20:37;23.40;99.90
13186;DHT22;6658;53.080;7.428;2022-08-19T08:23:02;23.80;99.90
13186;DHT22;6658;53.080;7.428;2022-08-19T08:25:47;24.30;99.90
13186;DHT22;6658;53.080;7.428;2022-08-19T08:28:15;24.70;99.90
13186;DHT22;6658;53.080;7.428;2022-08-19T08:30:40;25.10;99.90
13186;DHT22;6658;53.080;7.428;2022-08-19T08:33:09;25.20;99.90
13186;DHT22;6658;53.080;7.428;2022-08-19T08:35:35;25.20;99.90
13186;DHT22;6658;53.080;7.428;2022-08-19T08:38:02;25.50;99.90
13186;DHT22;6658;53.080;7.428;2022-08-19T08:45:28;26.40;99.90
13186;DHT22;6658;53.080;7.428;2022-08-19T08:47:57;26.60;99.90
13186;DHT22;6658;53.080;7.428;2022-08-19T08:50:39;26.90;99.90
13186;DHT22;6658;53.080;7.428;2022-08-19T08:53:16;27.50;99.90
13186;DHT22;6658;53.080;7.428;2022-08-19T08:55:43;28.00;99.90
13186;DHT22;6658;53.080;7.428;2022-08-19T08:58:14;28.30;99.90
13186;DHT22;6658;53.080;7.428;2022-08-19T09:00:45;28.60;99.90
13186;DHT22;6658;53.080;7.428;2022-08-19T09:03:24;28.70;99.90
13186;DHT22;6658;53.080;7.428;2022-08-19T09:08:49;29.00;99.90
13186;DHT22;6658;53.080;7.428;2022-08-19T09:11:23;29.40;99.90
13186;DHT22;6658;53.080;7.428;2022-08-19T09:13:59;29.90;99.90
13186;DHT22;6658;53.080;7.428;2022-08-19T09:16:28;30.40;99.90
13186;DHT22;6658;53.080;7.428;2022-08-19T09:19:06;30.80;99.90
13186;DHT22;6658;53.080;7.428;2022-08-19T09:21:33;31.30;99.90
13186;DHT22;6658;53.080;7.428;2022-08-19T09:24:03;31.50;98.60
13186;DHT22;6658;53.080;7.428;2022-08-19T09:26:31;31.60;96.80
13186;DHT22;6658;53.080;7.428;2022-08-19T09:28:58;31.30;96.30
13186;DHT22;6658;53.080;7.428;2022-08-19T09:31:26;30.90;97.00
13186;DHT22;6658;53.080;7.428;2022-08-19T09:33:53;30.80;97.10
13186;DHT22;6658;53.080;7.428;2022-08-19T09:36:23;30.90;98.00
13186;DHT22;6658;53.080;7.428;2022-08-19T09:38:50;31.10;96.90
13186;DHT22;6658;53.080;7.428;2022-08-19T09:41:22;31.30;95.90
13186;DHT22;6658;53.080;7.428;2022-08-19T09:43:50;31.40;94.50
13186;DHT22;6658;53.080;7.428;2022-08-19T09:46:20;31.70;93.40
13186;DHT22;6658;53.080;7.428;2022-08-19T09:48:49;31.70;94.80
13186;DHT22;6658;53.080;7.428;2022-08-19T09:51:21;31.80;93.40
13186;DHT22;6658;53.080;7.428;2022-08-19T09:53:48;31.30;94.20
13186;DHT22;6658;53.080;7.428;2022-08-19T09:56:17;30.80;94.90
13186;DHT22;6658;53.080;7.428;2022-08-19T09:58:43;30.40;96.10
13186;DHT22;6658;53.080;7.428;2022-08-19T10:01:16;30.10;96.10
13186;DHT22;6658;53.080;7.428;2022-08-19T10:03:41;30.10;96.40
13186;DHT22;6658;53.080;7.428;2022-08-19T10:06:07;30.20;96.10
13186;DHT22;6658;53.080;7.428;2022-08-19T10:08:36;30.50;95.90
13186;DHT22;6658;53.080;7.428;2022-08-19T10:11:03;30.30;95.10
13186;DHT22;6658;53.080;7.428;2022-08-19T10:13:31;30.00;95.40
13186;DHT22;6658;53.080;7.428;2022-08-19T10:16:05;30.00;95.90
13186;DHT22;6658;53.080;7.428;2022-08-19T10:18:32;30.20;94.70
13186;DHT22;6658;53.080;7.428;2022-08-19T10:21:14;30.90;93.60
13186;DHT22;6658;53.080;7.428;2022-08-19T10:23:42;30.20;95.80
13186;DHT22;6658;53.080;7.428;2022-08-19T10:26:18;31.30;95.50
13186;DHT22;6658;53.080;7.428;2022-08-19T10:28:44;33.00;92.10
13186;DHT22;6658;53.080;7.428;2022-08-19T10:31:15;33.80;90.10
13186;DHT22;6658;53.080;7.428;2022-08-19T10:33:41;33.70;87.20
13186;DHT22;6658;53.080;7.428;2022-08-19T10:36:13;33.80;87.90
13186;DHT22;6658;53.080;7.428;2022-08-19T10:38:43;34.30;85.30
13186;DHT22;6658;53.080;7.428;2022-08-19T10:41:15;34.20;82.60
13186;DHT22;6658;53.080;7.428;2022-08-19T10:43:41;34.20;83.90
13186;DHT22;6658;53.080;7.428;2022-08-19T10:46:10;33.80;85.90
13186;DHT22;6658;53.080;7.428;2022-08-19T10:48:36;34.80;81.30
13186;DHT22;6658;53.080;7.428;2022-08-19T10:51:03;35.70;83.90
13186;DHT22;6658;53.080;7.428;2022-08-19T10:53:47;35.20;78.00
13186;DHT22;6658;53.080;7.428;2022-08-19T10:56:13;33.50;83.10
13186;DHT22;6658;53.080;7.428;2022-08-19T10:58:58;33.40;83.00
13186;DHT22;6658;53.080;7.428;2022-08-19T11:01:25;34.00;82.70
13186;DHT22;6658;53.080;7.428;2022-08-19T11:03:51;34.60;82.00
13186;DHT22;6658;53.080;7.428;2022-08-19T11:06:18;35.00;80.80
13186;DHT22;6658;53.080;7.428;2022-08-19T11:08:44;35.80;78.60
13186;DHT22;6658;53.080;7.428;2022-08-19T11:11:11;36.00;73.90
13186;DHT22;6658;53.080;7.428;2022-08-19T11:13:39;36.00;76.20
13186;DHT22;6658;53.080;7.428;2022-08-19T11:16:08;36.60;75.00
13186;DHT22;6658;53.080;7.428;2022-08-19T11:18:39;36.50;72.00
13186;DHT22;6658;53.080;7.428;2022-08-19T11:21:12;36.00;71.70
13186;DHT22;6658;53.080;7.428;2022-08-19T11:23:38;35.50;75.00
13186;DHT22;6658;53.080;7.428;2022-08-19T11:26:04;35.40;73.80
13186;DHT22;6658;53.080;7.428;2022-08-19T11:28:29;35.60;72.30
13186;DHT22;6658;53.080;7.428;2022-08-19T11:30:55;34.80;72.50
13186;DHT22;6658;53.080;7.428;2022-08-19T11:33:21;34.30;76.50
13186;DHT22;6658;53.080;7.428;2022-08-19T11:35:46;34.00;77.50
13186;DHT22;6658;53.080;7.428;2022-08-19T11:38:12;33.60;76.60
13186;DHT22;6658;53.080;7.428;2022-08-19T11:40:40;33.00;79.50
13186;DHT22;6658;53.080;7.428;2022-08-19T11:43:07;32.20;80.00
13186;DHT22;6658;53.080;7.428;2022-08-19T11:45:33;31.50;82.10
13186;DHT22;6658;53.080;7.428;2022-08-19T11:47:59;30.90;84.10
13186;DHT22;6658;53.080;7.428;2022-08-19T11:50:25;30.20;85.20
13186;DHT22;6658;53.080;7.428;2022-08-19T11:52:54;29.70;88.30
13186;DHT22;6658;53.080;7.428;2022-08-19T11:55:20;29.10;88.70
13186;DHT22;6658;53.080;7.428;2022-08-19T11:57:46;28.70;89.60
13186;DHT22;6658;53.080;7.428;2022-08-19T12:00:13;28.40;91.30
13186;DHT22;6658;53.080;7.428;2022-08-19T12:02:39;28.10;91.50
13186;DHT22;6658;53.080;7.428;2022-08-19T12:05:05;28.00;93.30
13186;DHT22;6658;53.080;7.428;2022-08-19T12:07:32;28.10;94.60
13186;DHT22;6658;53.080;7.428;2022-08-19T12:09:59;28.10;93.00
13186;DHT22;6658;53.080;7.428;2022-08-19T12:12:24;28.30;91.70
13186;DHT22;6658;53.080;7.428;2022-08-19T12:14:50;28.00;91.30
13186;DHT22;6658;53.080;7.428;2022-08-19T12:17:23;28.20;93.80
13186;DHT22;6658;53.080;7.428;2022-08-19T12:19:48;28.50;93.20
13186;DHT22;6658;53.080;7.428;2022-08-19T12:22:14;28.70;92.80
13186;DHT22;6658;53.080;7.428;2022-08-19T12:24:40;28.70;92.10
13186;DHT22;6658;53.080;7.428;2022-08-19T12:27:05;28.40;92.20
13186;DHT22;6658;53.080;7.428;2022-08-19T12:29:32;28.30;92.90
13186;DHT22;6658;53.080;7.428;2022-08-19T12:31:59;28.10;93.40
13186;DHT22;6658;53.080;7.428;2022-08-19T12:34:29;28.20;92.70
13186;DHT22;6658;53.080;7.428;2022-08-19T12:37:00;28.20;92.40
13186;DHT22;6658;53.080;7.428;2022-08-19T12:39:26;28.00;92.50
13186;DHT22;6658;53.080;7.428;2022-08-19T12:41:52;27.90;93.20
13186;DHT22;6658;53.080;7.428;2022-08-19T12:44:18;27.70;93.00
13186;DHT22;6658;53.080;7.428;2022-08-19T12:46:43;27.60;93.90
13186;DHT22;6658;53.080;7.428;2022-08-19T12:49:10;27.20;93.80
13186;DHT22;6658;53.080;7.428;2022-08-19T12:51:35;27.00;94.70
13186;DHT22;6658;53.080;7.428;2022-08-19T12:54:02;26.80;95.90
13186;DHT22;6658;53.080;7.428;2022-08-19T12:56:27;26.80;95.70
13186;DHT22;6658;53.080;7.428;2022-08-19T12:58:53;26.90;95.90
13186;DHT22;6658;53.080;7.428;2022-08-19T13:01:19;27.10;95.80
13186;DHT22;6658;53.080;7.428;2022-08-19T13:03:46;27.40;95.80
13186;DHT22;6658;53.080;7.428;2022-08-19T13:06:12;27.60;94.90
13186;DHT22;6658;53.080;7.428;2022-08-19T13:08:38;27.80;95.20
13186;DHT22;6658;53.080;7.428;2022-08-19T13:11:09;27.60;94.20
13186;DHT22;6658;53.080;7.428;2022-08-19T13:13:38;27.60;94.70
13186;DHT22;6658;53.080;7.428;2022-08-19T13:16:07;27.60;96.00
13186;DHT22;6658;53.080;7.428;2022-08-19T13:18:32;27.80;95.80
13186;DHT22;6658;53.080;7.428;2022-08-19T13:21:06;28.00;94.40
13186;DHT22;6658;53.080;7.428;2022-08-19T13:23:33;28.10;94.30
13186;DHT22;6658;53.080;7.428;2022-08-19T13:26:01;28.10;94.30
13186;DHT22;6658;53.080;7.428;2022-08-19T13:28:28;28.00;93.80
13186;DHT22;6658;53.080;7.428;2022-08-19T13:31:22;27.90;94.70
13186;DHT22;6658;53.080;7.428;2022-08-19T13:34:07;27.70;94.90
13186;DHT22;6658;53.080;7.428;2022-08-19T13:36:34;27.60;96.00
13186;DHT22;6658;53.080;7.428;2022-08-19T13:39:00;27.60;96.40
13186;DHT22;6658;53.080;7.428;2022-08-19T13:41:27;27.60;96.20
13186;DHT22;6658;53.080;7.428;2022-08-19T13:43:53;27.60;96.50
13186;DHT22;6658;53.080;7.428;2022-08-19T13:46:19;27.50;96.30
13186;DHT22;6658;53.080;7.428;2022-08-19T13:48:46;27.40;96.40
13186;DHT22;6658;53.080;7.428;2022-08-19T13:51:14;27.30;96.10
13186;DHT22;6658;53.080;7.428;2022-08-19T13:53:42;27.20;96.10
13186;DHT22;6658;53.080;7.428;2022-08-19T13:56:11;27.00;96.80
13186;DHT22;6658;53.080;7.428;2022-08-19T13:58:38;27.00;97.40
13186;DHT22;6658;53.080;7.428;2022-08-19T14:01:05;27.00;97.00
13186;DHT22;6658;53.080;7.428;2022-08-19T14:03:32;27.00;98.20
13186;DHT22;6658;53.080;7.428;2022-08-19T14:05:57;27.00;97.80
13186;DHT22;6658;53.080;7.428;2022-08-19T14:08:24;27.10;97.80
13186;DHT22;6658;53.080;7.428;2022-08-19T14:10:50;27.20;97.50
13186;DHT22;6658;53.080;7.428;2022-08-19T14:13:18;27.20;97.00
13186;DHT22;6658;53.080;7.428;2022-08-19T14:15:45;27.30;96.80
13186;DHT22;6658;53.080;7.428;2022-08-19T14:18:13;27.30;97.00
13186;DHT22;6658;53.080;7.428;2022-08-19T14:20:39;27.50;96.90
13186;DHT22;6658;53.080;7.428;2022-08-19T14:23:05;27.60;96.40
13186;DHT22;6658;53.080;7.428;2022-08-19T14:25:32;27.60;97.10
13186;DHT22;6658;53.080;7.428;2022-08-19T14:27:58;27.70;96.80
13186;DHT22;6658;53.080;7.428;2022-08-19T14:30:30;27.90;97.10
13186;DHT22;6658;53.080;7.428;2022-08-19T14:32:57;28.00;97.90
13186;DHT22;6658;53.080;7.428;2022-08-19T14:35:28;28.10;97.00
13186;DHT22;6658;53.080;7.428;2022-08-19T14:37:55;28.10;96.80
13186;DHT22;6658;53.080;7.428;2022-08-19T14:40:23;28.10;95.60
13186;DHT22;6658;53.080;7.428;2022-08-19T14:42:53;28.10;96.00
13186;DHT22;6658;53.080;7.428;2022-08-19T14:45:28;28.00;97.20
13186;DHT22;6658;53.080;7.428;2022-08-19T14:47:53;27.90;96.50
13186;DHT22;6658;53.080;7.428;2022-08-19T14:50:19;27.80;97.20
13186;DHT22;6658;53.080;7.428;2022-08-19T14:52:46;27.70;97.00
13186;DHT22;6658;53.080;7.428;2022-08-19T14:55:18;27.90;97.40
13186;DHT22;6658;53.080;7.428;2022-08-19T14:57:44;28.00;96.90
13186;DHT22;6658;53.080;7.428;2022-08-19T15:00:11;28.10;96.20
13186;DHT22;6658;53.080;7.428;2022-08-19T15:02:38;28.00;96.40
13186;DHT22;6658;53.080;7.428;2022-08-19T15:05:04;28.10;97.10
13186;DHT22;6658;53.080;7.428;2022-08-19T15:07:30;28.10;95.90
13186;DHT22;6658;53.080;7.428;2022-08-19T15:09:56;27.90;96.10
13186;DHT22;6658;53.080;7.428;2022-08-19T15:12:22;27.70;96.70
13186;DHT22;6658;53.080;7.428;2022-08-19T15:14:48;27.50;96.30
13186;DHT22;6658;53.080;7.428;2022-08-19T15:17:16;27.40;96.40
13186;DHT22;6658;53.080;7.428;2022-08-19T15:19:43;27.30;96.80
13186;DHT22;6658;53.080;7.428;2022-08-19T15:22:08;27.20;97.10
13186;DHT22;6658;53.080;7.428;2022-08-19T15:24:34;27.20;97.30
13186;DHT22;6658;53.080;7.428;2022-08-19T15:27:01;27.20;97.20
13186;DHT22;6658;53.080;7.428;2022-08-19T15:29:28;27.00;97.20
13186;DHT22;6658;53.080;7.428;2022-08-19T15:31:54;27.00;97.60
13186;DHT22;6658;53.080;7.428;2022-08-19T15:34:22;26.90;98.00
13186;DHT22;6658;53.080;7.428;2022-08-19T15:36:48;26.80;98.20
13186;DHT22;6658;53.080;7.428;2022-08-19T15:39:13;26.70;99.10
13186;DHT22;6658;53.080;7.428;2022-08-19T15:41:41;26.70;99.20
13186;DHT22;6658;53.080;7.428;2022-08-19T15:44:14;26.50;99.90
13186;DHT22;6658;53.080;7.428;2022-08-19T15:46:41;26.20;99.90
13186;DHT22;6658;53.080;7.428;2022-08-19T15:49:09;25.90;99.90
13186;DHT22;6658;53.080;7.428;2022-08-19T15:51:36;25.70;99.90
13186;DHT22;6658;53.080;7.428;2022-08-19T15:54:05;25.50;99.90
13186;DHT22;6658;53.080;7.428;2022-08-19T15:56:31;25.30;99.90
13186;DHT22;6658;53.080;7.428;2022-08-19T15:59:16;25.30;99.90
13186;DHT22;6658;53.080;7.428;2022-08-19T16:02:01;25.10;99.90
13186;DHT22;6658;53.080;7.428;2022-08-19T16:04:45;25.00;99.90